Kearsley, United Kingdom
Current Conditions -  °F | °C
As of 7:50 PM on Wednesday 17 Dec 2014 (Local Time) from EGCC Reporting Station
Drizzle Drizzle  
Wind Chill: 50°   Ceiling: 1400
Heat Index: 50°   Visibility: 2.5mi
Dew Point: 50°   Wind: 8mph
Humidity: 100%   Direction: 210°SSW
Pressure: 29.68"   Gusts: NA
Location:  53.53°N, 2.38°W
Report Text: EGCC 171950Z 21007KT 4100 DZ SCT010 BKN014 BKN019 10/10 Q1005 BECMG 9999 NSW BKN015
Loading
Personal Weather Stations






























Interactive Weather Map New forecast layout! Learn more

10-Day Weather Forecast

Advertisements
Track Severe Weather on mobile